createdAt,value
2018-12-04T00:02:27.901Z,5.43
2018-12-04T00:04:56.294Z,5.53
2018-12-04T00:07:24.606Z,4.83
2018-12-04T00:09:53.294Z,4.77
2018-12-04T00:12:21.678Z,4.77
2018-12-04T00:14:50.059Z,4.90
2018-12-04T00:17:18.448Z,4.40
2018-12-04T00:19:46.919Z,6.83
2018-12-04T00:22:15.330Z,6.90
2018-12-04T00:24:43.911Z,7.03
2018-12-04T00:27:12.670Z,7.07
2018-12-04T00:29:40.990Z,7.40
2018-12-04T00:32:09.266Z,7.50
2018-12-04T00:34:37.618Z,7.47
2018-12-04T00:37:05.938Z,7.80
2018-12-04T00:39:34.365Z,7.03
2018-12-04T00:42:03.255Z,6.47
2018-12-04T00:44:31.502Z,7.40
2018-12-04T00:46:59.987Z,7.10
2018-12-04T00:49:28.419Z,7.13
2018-12-04T00:51:56.770Z,6.40
2018-12-04T00:54:25.155Z,6.83
2018-12-04T00:56:53.646Z,6.97
2018-12-04T00:59:22.042Z,6.33
2018-12-04T01:01:50.416Z,6.67
2018-12-04T01:04:18.838Z,6.57
2018-12-04T01:06:47.111Z,6.77
2018-12-04T01:09:15.445Z,6.40
2018-12-04T01:11:43.964Z,6.17
2018-12-04T01:14:12.322Z,6.37
2018-12-04T01:16:40.716Z,6.90
2018-12-04T01:19:09.153Z,7.07
2018-12-04T01:21:37.854Z,7.10
2018-12-04T01:24:06.326Z,6.43
2018-12-04T01:26:36.380Z,7.70
2018-12-04T01:29:04.761Z,6.70
2018-12-04T01:31:33.107Z,6.33
2018-12-04T01:34:01.361Z,6.60
2018-12-04T01:36:29.800Z,6.40
2018-12-04T01:38:58.308Z,6.37
2018-12-04T01:41:26.818Z,6.13
2018-12-04T01:43:55.309Z,5.87
2018-12-04T01:46:23.640Z,6.20
2018-12-04T01:48:52.010Z,6.13
2018-12-04T01:51:20.337Z,6.20
2018-12-04T01:53:48.643Z,6.43
2018-12-04T01:56:17.054Z,5.80
2018-12-04T01:58:45.417Z,6.47
2018-12-04T02:01:13.671Z,6.20
2018-12-04T02:03:42.050Z,6.40
2018-12-04T02:06:10.463Z,5.93
2018-12-04T02:08:38.872Z,5.63
2018-12-04T02:11:07.221Z,6.60
2018-12-04T02:13:35.590Z,6.00
2018-12-04T02:16:04.027Z,5.77
2018-12-04T02:18:32.386Z,5.97
2018-12-04T02:21:00.917Z,5.83
2018-12-04T02:23:29.245Z,5.90
2018-12-04T02:25:57.606Z,5.73
2018-12-04T02:28:30.527Z,5.77
2018-12-04T02:30:59.029Z,5.70
2018-12-04T02:33:27.732Z,5.90
2018-12-04T02:35:56.263Z,5.60
2018-12-04T02:38:24.607Z,5.27
2018-12-04T02:40:52.890Z,5.40
2018-12-04T02:43:21.167Z,5.90
2018-12-04T02:45:49.487Z,6.00
2018-12-04T02:48:17.870Z,5.60
2018-12-04T02:50:46.182Z,6.10
2018-12-04T02:53:14.693Z,6.23
2018-12-04T02:55:43.039Z,6.30
2018-12-04T02:58:11.525Z,5.70
2018-12-04T03:00:39.916Z,5.43
2018-12-04T03:03:08.699Z,5.27
2018-12-04T03:05:37.031Z,4.90
2018-12-04T03:08:05.364Z,5.00
2018-12-04T03:10:33.706Z,4.60
2018-12-04T03:13:02.221Z,4.93
2018-12-04T03:15:30.517Z,4.60
2018-12-04T03:17:58.841Z,5.17
2018-12-04T03:20:27.134Z,5.43
2018-12-04T03:22:55.403Z,5.00
2018-12-04T03:25:24.222Z,4.73
2018-12-04T03:27:52.873Z,4.27
2018-12-04T03:30:21.738Z,4.70
2018-12-04T03:32:50.199Z,4.60
2018-12-04T03:35:18.579Z,4.37
2018-12-04T03:37:46.997Z,4.50
2018-12-04T03:40:15.487Z,4.20
2018-12-04T03:42:43.938Z,4.60
2018-12-04T03:45:12.423Z,4.60
2018-12-04T03:47:40.866Z,4.27
2018-12-04T03:50:09.218Z,4.37
2018-12-04T03:52:37.973Z,4.90
2018-12-04T03:55:06.499Z,4.67
2018-12-04T03:57:34.900Z,4.57
2018-12-04T04:00:04.241Z,4.27
2018-12-04T04:02:32.740Z,3.97
2018-12-04T04:05:01.046Z,3.50
2018-12-04T04:07:29.465Z,3.70
2018-12-04T04:09:58.114Z,4.30
2018-12-04T04:12:26.505Z,3.70
2018-12-04T04:14:54.858Z,3.90
2018-12-04T04:17:23.255Z,3.20
2018-12-04T04:19:51.695Z,3.33
2018-12-04T04:22:20.154Z,3.30
2018-12-04T04:24:48.643Z,3.40
2018-12-04T04:27:17.227Z,3.30
2018-12-04T04:29:45.612Z,3.20
2018-12-04T04:32:14.101Z,3.30
2018-12-04T04:34:42.509Z,3.00
2018-12-04T04:37:10.893Z,3.37
2018-12-04T04:39:39.249Z,2.90
2018-12-04T04:42:07.698Z,2.90
2018-12-04T04:44:36.043Z,3.10
2018-12-04T04:47:04.395Z,3.10
2018-12-04T04:49:32.861Z,3.10
2018-12-04T04:52:01.112Z,3.40
2018-12-04T04:54:29.557Z,3.00
2018-12-04T04:56:57.943Z,2.80
2018-12-04T04:59:26.376Z,3.20
2018-12-04T05:01:54.806Z,2.50
2018-12-04T05:04:23.062Z,2.90
2018-12-04T05:06:51.310Z,2.53
2018-12-04T05:09:19.755Z,2.30
2018-12-04T05:11:48.377Z,2.20
2018-12-04T05:14:16.814Z,2.00
2018-12-04T05:16:45.182Z,2.20
2018-12-04T05:19:13.714Z,2.13
2018-12-04T05:21:42.424Z,2.50
2018-12-04T05:24:11.023Z,2.30
2018-12-04T05:26:39.954Z,2.37
2018-12-04T05:29:08.378Z,2.20
2018-12-04T05:31:38.371Z,2.30
2018-12-04T05:34:06.806Z,2.30
2018-12-04T05:36:36.552Z,2.70
2018-12-04T05:39:07.214Z,2.50
2018-12-04T05:41:37.192Z,2.07
2018-12-04T05:44:05.606Z,2.50
2018-12-04T05:46:33.926Z,2.40
2018-12-04T05:49:02.287Z,2.73
2018-12-04T05:51:30.722Z,2.83
2018-12-04T05:53:59.254Z,2.77
2018-12-04T05:56:27.558Z,2.87
2018-12-04T05:58:56.040Z,3.07
2018-12-04T06:01:24.802Z,3.03
2018-12-04T06:03:53.257Z,3.20
2018-12-04T06:06:21.699Z,3.10
2018-12-04T06:08:50.086Z,3.13
2018-12-04T06:11:22.577Z,3.40
2018-12-04T06:13:50.935Z,3.00
2018-12-04T06:16:19.427Z,3.20
2018-12-04T06:18:48.170Z,3.27
2018-12-04T06:21:16.887Z,3.10
2018-12-04T06:23:45.371Z,3.73
2018-12-04T06:26:13.706Z,3.50
2018-12-04T06:28:42.050Z,4.00
2018-12-04T06:31:10.434Z,4.00
2018-12-04T06:33:38.860Z,3.70
2018-12-04T06:36:07.321Z,3.87
2018-12-04T06:38:35.709Z,4.43
2018-12-04T06:41:04.074Z,4.17
2018-12-04T06:43:32.482Z,4.13
2018-12-04T06:46:00.954Z,3.63
2018-12-04T06:48:29.302Z,4.23
2018-12-04T06:50:57.546Z,4.23
2018-12-04T06:53:25.953Z,4.50
2018-12-04T06:55:54.229Z,4.17
2018-12-04T06:58:22.526Z,3.47
2018-12-04T07:00:51.258Z,4.23
2018-12-04T07:03:19.551Z,3.90
2018-12-04T07:05:52.182Z,4.00
2018-12-04T07:08:20.591Z,3.93
2018-12-04T07:10:49.055Z,4.30
2018-12-04T07:13:17.626Z,4.63
2018-12-04T07:15:45.999Z,5.13
2018-12-04T07:18:14.654Z,5.70
2018-12-04T07:20:43.130Z,5.00
2018-12-04T07:23:12.026Z,5.90
2018-12-04T07:25:40.482Z,7.77
2018-12-04T07:28:08.894Z,8.27
2018-12-04T07:30:37.651Z,8.43
2018-12-04T07:33:06.363Z,8.20
2018-12-04T07:35:34.726Z,8.13
2018-12-04T07:38:03.145Z,7.87
2018-12-04T07:40:31.476Z,8.17
2018-12-04T07:42:59.996Z,7.73
2018-12-04T07:45:28.887Z,7.93
2018-12-04T07:47:57.236Z,7.97
2018-12-04T07:50:25.578Z,8.40
2018-12-04T07:52:53.896Z,9.80
2018-12-04T07:55:22.391Z,10.67
2018-12-04T07:57:50.778Z,10.17
2018-12-04T08:00:19.814Z,10.30
2018-12-04T08:02:48.098Z,9.23
2018-12-04T08:05:16.464Z,7.90
2018-12-04T08:07:45.019Z,8.10
2018-12-04T08:10:13.354Z,8.13
2018-12-04T08:12:41.991Z,7.93
2018-12-04T08:15:10.380Z,8.90
2018-12-04T08:17:38.845Z,8.33
2018-12-04T08:20:08.228Z,8.53
2018-12-04T08:22:36.651Z,8.60
2018-12-04T08:25:05.454Z,8.50
2018-12-04T08:27:36.366Z,8.17
2018-12-04T08:30:06.439Z,8.93
2018-12-04T08:32:34.782Z,10.30
2018-12-04T08:35:03.374Z,14.10
2018-12-04T08:37:31.822Z,15.73
2018-12-04T08:40:00.094Z,13.00
2018-12-04T08:42:28.615Z,11.87
2018-12-04T08:44:57.002Z,10.50
2018-12-04T08:47:25.439Z,10.57
2018-12-04T08:49:54.092Z,9.07
2018-12-04T08:52:22.481Z,9.60
2018-12-04T08:54:50.907Z,10.30
2018-12-04T08:57:19.292Z,11.20
2018-12-04T08:59:47.738Z,11.77
2018-12-04T09:02:16.225Z,13.20
2018-12-04T09:04:44.582Z,15.13
2018-12-04T09:07:12.947Z,14.80
2018-12-04T09:09:41.532Z,14.60
2018-12-04T09:12:09.937Z,15.73
2018-12-04T09:15:00.346Z,14.43
2018-12-04T09:17:28.843Z,15.30
2018-12-04T09:19:57.396Z,15.40
2018-12-04T09:22:26.101Z,17.10
2018-12-04T09:24:54.696Z,18.67
2018-12-04T09:27:23.105Z,17.43
2018-12-04T09:29:51.510Z,15.70
2018-12-04T09:32:19.984Z,18.73
2018-12-04T09:34:48.554Z,19.43
2018-12-04T09:37:17.082Z,20.03
2018-12-04T09:39:45.388Z,22.10
2018-12-04T09:42:14.153Z,24.97
2018-12-04T09:44:42.859Z,23.43
2018-12-04T09:47:11.150Z,23.60
2018-12-04T09:49:39.531Z,21.87
2018-12-04T09:52:08.157Z,21.10
2018-12-04T09:54:36.616Z,20.87
2018-12-04T09:57:05.065Z,23.83
2018-12-04T09:59:33.374Z,25.53
2018-12-04T10:02:01.890Z,26.77
2018-12-04T10:04:30.261Z,26.83
2018-12-04T10:06:58.836Z,27.17
2018-12-04T10:09:27.275Z,29.97
2018-12-04T10:11:55.588Z,27.43
2018-12-04T10:14:39.072Z,24.60
2018-12-04T10:17:07.501Z,24.40
2018-12-04T10:19:35.915Z,24.60
2018-12-04T10:22:04.335Z,23.40
2018-12-04T10:24:32.759Z,23.93
2018-12-04T10:27:01.495Z,22.47
2018-12-04T10:29:30.198Z,21.70
2018-12-04T10:31:58.955Z,21.60
2018-12-04T10:34:27.373Z,20.17
2018-12-04T10:36:55.855Z,19.37
2018-12-04T10:39:24.154Z,18.97
2018-12-04T10:41:52.533Z,16.20
2018-12-04T10:44:21.101Z,14.40
2018-12-04T10:46:49.526Z,12.93
2018-12-04T10:49:18.340Z,11.93
2018-12-04T10:51:46.747Z,10.50
2018-12-04T10:54:15.124Z,13.63
2018-12-04T10:56:43.665Z,13.17
2018-12-04T10:59:12.127Z,13.57
2018-12-04T11:01:46.016Z,12.47
2018-12-04T11:04:14.346Z,11.40
2018-12-04T11:06:43.539Z,10.67
2018-12-04T11:09:11.994Z,11.67
2018-12-04T11:11:40.662Z,12.17
2018-12-04T11:14:08.978Z,12.73
2018-12-04T11:16:38.375Z,12.90
2018-12-04T11:19:06.856Z,12.23
2018-12-04T11:21:36.456Z,12.87
2018-12-04T11:24:04.891Z,12.07
2018-12-04T11:26:33.185Z,11.53
2018-12-04T11:29:01.838Z,11.20
2018-12-04T11:31:30.293Z,12.10
2018-12-04T11:33:58.703Z,12.97
2018-12-04T11:36:26.972Z,13.27
2018-12-04T11:38:55.614Z,13.07
2018-12-04T11:41:23.945Z,12.17
2018-12-04T11:43:52.354Z,11.07
2018-12-04T11:46:20.697Z,11.23
2018-12-04T11:48:49.083Z,11.73
2018-12-04T11:51:17.407Z,11.23
2018-12-04T11:53:45.753Z,12.93
2018-12-04T11:56:14.101Z,14.73
2018-12-04T11:58:42.686Z,13.73
2018-12-04T12:01:13.734Z,14.13
2018-12-04T12:03:42.270Z,13.03
2018-12-04T12:06:10.678Z,13.30
2018-12-04T12:08:39.563Z,13.40
2018-12-04T12:11:08.215Z,13.33
2018-12-04T12:13:36.507Z,14.77
2018-12-04T12:16:04.930Z,16.23
2018-12-04T12:18:33.323Z,14.10
2018-12-04T12:21:01.834Z,14.90
2018-12-04T12:23:30.138Z,14.57
2018-12-04T12:25:58.598Z,13.80
2018-12-04T12:28:27.507Z,14.10
2018-12-04T12:30:55.939Z,15.40
2018-12-04T12:33:24.583Z,15.47
2018-12-04T12:35:53.288Z,14.77
2018-12-04T12:38:21.883Z,14.20
2018-12-04T12:40:50.254Z,15.00
2018-12-04T12:43:18.542Z,13.70
2018-12-04T12:45:46.994Z,13.57
2018-12-04T12:48:15.798Z,13.37
2018-12-04T12:50:44.575Z,12.50
2018-12-04T12:53:13.374Z,12.60
2018-12-04T12:55:41.787Z,12.27
2018-12-04T12:58:10.171Z,12.57
2018-12-04T13:00:38.427Z,12.40
2018-12-04T13:03:06.786Z,12.47
2018-12-04T13:05:35.234Z,13.43
2018-12-04T13:08:03.779Z,12.27
2018-12-04T13:10:32.074Z,13.03
2018-12-04T13:13:00.477Z,13.83
2018-12-04T13:15:47.992Z,13.20
2018-12-04T13:18:16.468Z,12.40
2018-12-04T13:20:44.888Z,12.80
2018-12-04T13:23:13.328Z,13.03
2018-12-04T13:25:41.733Z,12.00
2018-12-04T13:28:10.241Z,11.93
2018-12-04T13:30:38.774Z,12.33
2018-12-04T13:33:07.165Z,12.33
2018-12-04T13:35:35.600Z,12.80
2018-12-04T13:38:04.002Z,11.90
2018-12-04T13:40:32.535Z,12.07
2018-12-04T13:43:01.072Z,11.27
2018-12-04T13:45:29.493Z,11.83
2018-12-04T13:48:00.852Z,12.30
2018-12-04T13:50:28.566Z,12.60
2018-12-04T13:52:56.995Z,12.33
2018-12-04T13:55:25.420Z,13.20
2018-12-04T13:57:53.885Z,15.10
2018-12-04T14:00:22.770Z,19.70
2018-12-04T14:02:51.192Z,19.20
2018-12-04T14:05:19.534Z,17.60
2018-12-04T14:07:47.900Z,15.53
2018-12-04T14:10:16.259Z,15.13
2018-12-04T14:12:44.879Z,15.13
2018-12-04T14:15:45.075Z,15.57
2018-12-04T14:18:13.537Z,14.53
2018-12-04T14:20:41.927Z,16.67
2018-12-04T14:23:10.369Z,16.33
2018-12-04T14:25:38.778Z,18.63
2018-12-04T14:28:07.264Z,19.27
2018-12-04T14:30:35.702Z,22.93
2018-12-04T14:33:04.020Z,21.17
2018-12-04T14:35:32.397Z,18.97
2018-12-04T14:38:00.915Z,18.13
2018-12-04T14:40:29.355Z,18.97
2018-12-04T14:42:57.665Z,19.17
2018-12-04T14:45:26.159Z,16.23
2018-12-04T14:47:54.561Z,14.10
2018-12-04T14:50:23.413Z,13.60
2018-12-04T14:52:51.819Z,13.53
2018-12-04T14:55:20.665Z,13.30
2018-12-04T14:57:48.903Z,13.17
2018-12-04T15:00:17.411Z,12.83
2018-12-04T15:02:46.024Z,12.13
2018-12-04T15:05:14.395Z,12.93
2018-12-04T15:07:42.730Z,12.60
2018-12-04T15:10:11.363Z,12.27
2018-12-04T15:12:39.714Z,12.50
2018-12-04T15:15:36.352Z,15.93
2018-12-04T15:18:05.023Z,19.13
2018-12-04T15:20:33.680Z,18.30
2018-12-04T15:23:02.508Z,18.53
2018-12-04T15:25:31.110Z,17.27
2018-12-04T15:27:59.626Z,19.33
2018-12-04T15:30:28.029Z,22.27
2018-12-04T15:32:56.460Z,21.63
2018-12-04T15:35:24.902Z,21.83
2018-12-04T15:37:53.314Z,21.87
2018-12-04T15:40:22.323Z,20.07
2018-12-04T15:42:50.805Z,20.77
2018-12-04T15:45:19.318Z,22.40
2018-12-04T15:47:47.722Z,24.37
2018-12-04T15:50:16.142Z,26.10
2018-12-04T15:52:44.556Z,27.37
2018-12-04T15:55:13.105Z,28.93
2018-12-04T15:57:41.458Z,31.20
2018-12-04T16:00:10.786Z,29.67
2018-12-04T16:02:39.391Z,29.90
2018-12-04T16:05:09.070Z,29.53
2018-12-04T16:07:37.465Z,26.77
2018-12-04T16:10:09.032Z,25.83
2018-12-04T16:12:37.529Z,26.80
2018-12-04T16:18:12.902Z,26.00
2018-12-04T16:20:41.602Z,24.20
2018-12-04T16:23:09.882Z,21.90
2018-12-04T16:25:38.592Z,20.70
2018-12-04T16:28:06.995Z,18.80
2018-12-04T16:30:35.357Z,19.33
2018-12-04T16:33:03.767Z,19.20
2018-12-04T16:35:32.097Z,20.17
2018-12-04T16:38:00.504Z,20.37
2018-12-04T16:40:28.891Z,20.83
2018-12-04T16:42:57.297Z,20.13
2018-12-04T16:45:25.604Z,19.17
2018-12-04T16:47:54.300Z,19.47
2018-12-04T16:50:23.402Z,19.33
2018-12-04T16:52:51.717Z,21.07
2018-12-04T16:55:20.678Z,22.27
2018-12-04T16:57:49.039Z,22.87
2018-12-04T17:00:17.789Z,19.77
2018-12-04T17:02:46.430Z,19.80
2018-12-04T17:05:14.891Z,18.90
2018-12-04T17:07:43.615Z,17.60
2018-12-04T17:10:12.223Z,16.10
2018-12-04T17:12:41.203Z,17.27
2018-12-04T17:18:37.838Z,18.23
2018-12-04T17:21:05.118Z,23.90
2018-12-04T17:23:33.525Z,24.93
2018-12-04T17:26:02.178Z,36.07
2018-12-04T17:28:30.586Z,38.30
2018-12-04T17:30:59.058Z,28.37
2018-12-04T17:33:28.166Z,21.57
2018-12-04T17:35:56.475Z,18.67
2018-12-04T17:38:24.869Z,19.13
2018-12-04T17:40:53.257Z,18.53
2018-12-04T17:43:21.633Z,20.13
2018-12-04T17:45:50.126Z,20.90
2018-12-04T17:48:18.766Z,20.27
2018-12-04T17:50:47.285Z,18.37
2018-12-04T17:53:15.730Z,18.77
2018-12-04T17:55:44.058Z,20.67
2018-12-04T17:58:12.423Z,20.47
2018-12-04T18:00:41.157Z,19.23
2018-12-04T18:03:09.740Z,16.77
2018-12-04T18:05:38.148Z,17.87
2018-12-04T18:08:06.474Z,15.83
2018-12-04T18:10:34.922Z,16.33
2018-12-04T18:13:03.629Z,16.17
2018-12-04T18:16:10.489Z,23.20
2018-12-04T18:18:38.957Z,19.07
2018-12-04T18:21:07.322Z,15.10
2018-12-04T18:23:35.591Z,14.70
2018-12-04T18:26:04.006Z,18.57
2018-12-04T18:28:32.538Z,21.80
2018-12-04T18:31:01.094Z,19.87
2018-12-04T18:33:29.486Z,15.83
2018-12-04T18:35:58.390Z,16.10
2018-12-04T18:38:27.029Z,16.50
2018-12-04T18:40:56.704Z,19.57
2018-12-04T18:43:26.802Z,18.17
2018-12-04T18:45:55.639Z,19.00
2018-12-04T18:48:24.002Z,18.70
2018-12-04T18:50:52.724Z,19.97
2018-12-04T18:53:21.117Z,20.73
2018-12-04T18:55:49.536Z,21.83
2018-12-04T18:58:17.892Z,21.30
2018-12-04T19:00:46.418Z,17.97
2018-12-04T19:03:14.726Z,17.70
2018-12-04T19:05:43.007Z,16.20
2018-12-04T19:08:11.399Z,12.20
2018-12-04T19:10:39.755Z,12.20
2018-12-04T19:13:08.234Z,10.70
2018-12-04T19:18:57.405Z,14.37
2018-12-04T19:21:25.791Z,15.80
2018-12-04T19:23:54.308Z,13.80
2018-12-04T19:26:22.967Z,13.43
2018-12-04T19:28:53.424Z,13.13
2018-12-04T19:31:21.825Z,14.53
2018-12-04T19:33:50.199Z,15.23
2018-12-04T19:36:18.707Z,17.13
2018-12-04T19:38:47.122Z,15.73
2018-12-04T19:41:15.465Z,15.30
2018-12-04T19:43:43.916Z,12.80
2018-12-04T19:46:12.427Z,12.03
2018-12-04T19:48:41.055Z,11.57
2018-12-04T19:51:09.483Z,12.63
2018-12-04T19:53:38.537Z,12.17
2018-12-04T19:56:06.865Z,15.83
2018-12-04T19:58:35.362Z,15.30
2018-12-04T20:01:03.722Z,13.27
2018-12-04T20:03:32.075Z,12.90
2018-12-04T20:06:00.418Z,12.63
2018-12-04T20:08:33.137Z,13.33
2018-12-04T20:11:01.538Z,13.00
2018-12-04T20:13:29.959Z,14.43
2018-12-04T20:16:31.703Z,13.13
2018-12-04T20:19:00.149Z,14.10
2018-12-04T20:21:28.783Z,15.67
2018-12-04T20:23:57.122Z,13.13
2018-12-04T20:26:25.516Z,11.90
2018-12-04T20:28:54.026Z,11.97
2018-12-04T20:31:27.886Z,12.07
2018-12-04T20:34:00.830Z,10.23
2018-12-04T20:36:33.755Z,10.77
2018-12-04T20:39:08.224Z,10.80
2018-12-04T20:41:38.002Z,9.90
2018-12-04T20:44:07.353Z,9.60
2018-12-04T20:46:38.531Z,8.60
2018-12-04T20:49:12.370Z,8.50
2018-12-04T20:51:46.837Z,9.07
2018-12-04T20:54:15.342Z,9.33
2018-12-04T20:56:44.029Z,11.67
2018-12-04T20:59:12.451Z,15.63
2018-12-04T21:01:41.021Z,18.43
2018-12-04T21:04:09.458Z,20.93
2018-12-04T21:06:39.624Z,21.47
2018-12-04T21:09:08.526Z,16.27
2018-12-04T21:11:38.987Z,14.27
2018-12-04T21:14:07.428Z,11.37
2018-12-04T21:16:42.476Z,9.53
2018-12-04T21:19:10.796Z,8.53
2018-12-04T21:21:40.316Z,8.53
2018-12-04T21:24:08.794Z,8.30
2018-12-04T21:27:11.418Z,8.10
2018-12-04T21:29:42.783Z,7.80
2018-12-04T21:32:16.552Z,7.53
2018-12-04T21:34:50.471Z,8.53
2018-12-04T21:37:24.142Z,9.97
2018-12-04T21:39:57.843Z,10.07
2018-12-04T21:42:31.759Z,9.37
2018-12-04T21:45:05.724Z,7.47
2018-12-04T21:47:39.538Z,8.00
2018-12-04T21:50:08.123Z,8.37
2018-12-04T21:52:36.422Z,8.40
2018-12-04T21:55:04.824Z,8.87
2018-12-04T21:57:33.274Z,9.53
2018-12-04T22:00:01.655Z,9.90
2018-12-04T22:02:30.188Z,8.73
2018-12-04T22:04:58.578Z,7.40
2018-12-04T22:07:26.938Z,7.27
2018-12-04T22:09:55.462Z,7.97
2018-12-04T22:12:24.051Z,7.50
2018-12-04T22:15:29.945Z,7.50
2018-12-04T22:17:58.290Z,8.20
2018-12-04T22:20:27.378Z,10.37
2018-12-04T22:22:56.681Z,10.77
2018-12-04T22:25:25.005Z,12.07
2018-12-04T22:27:53.699Z,12.40
2018-12-04T22:30:22.357Z,11.37
2018-12-04T22:32:51.057Z,10.27
2018-12-04T22:35:19.487Z,8.73
2018-12-04T22:37:47.850Z,8.50
2018-12-04T22:40:16.524Z,9.33
2018-12-04T22:42:45.118Z,9.30
2018-12-04T22:45:19.271Z,9.80
2018-12-04T22:47:47.658Z,9.97
2018-12-04T22:50:16.495Z,9.53
2018-12-04T22:52:44.809Z,9.20
2018-12-04T22:55:13.127Z,8.63
2018-12-04T22:57:41.919Z,9.50
2018-12-04T23:00:23.531Z,9.07
2018-12-04T23:02:52.002Z,9.80
2018-12-04T23:05:20.458Z,10.30
2018-12-04T23:07:48.903Z,9.43
2018-12-04T23:10:17.630Z,9.10
2018-12-04T23:12:46.073Z,9.20
2018-12-04T23:15:14.547Z,8.50
2018-12-04T23:17:43.850Z,8.83
2018-12-04T23:20:13.358Z,9.83
2018-12-04T23:22:41.873Z,9.07
2018-12-04T23:25:10.618Z,8.27
2018-12-04T23:27:39.217Z,7.60
2018-12-04T23:30:08.246Z,7.03
2018-12-04T23:32:37.444Z,6.70
2018-12-04T23:35:07.603Z,6.57
2018-12-04T23:37:36.364Z,6.67
2018-12-04T23:40:06.553Z,7.33
2018-12-04T23:42:35.103Z,7.37
2018-12-04T23:45:04.594Z,8.97
2018-12-04T23:47:33.346Z,10.13
2018-12-04T23:50:03.105Z,10.20
2018-12-04T23:52:32.450Z,11.33
2018-12-04T23:55:00.876Z,12.33
2018-12-04T23:57:29.401Z,12.00
2018-12-04T23:59:57.953Z,13.80
